Janesville, New York
Current Conditions -  °F | °C
As of 2:55 PM on Wednesday 28 Jan 2015 (Local Time) from KNY0 Reporting Station
Clear Clear  
Wind Chill:   Ceiling: Unl
Heat Index: 18°   Visibility: 10mi
Dew Point: -1°   Wind: 15mph
Humidity: 43%   Direction: 260°W
Pressure: 30.09"   Gusts: 18mph
Location:  42.6995°N, 74.5108°W
Report Text: KNY0 281955Z AUTO 26013G16KT 10SM CLR M08/M19 A3009 RMK AO2 T10801186
Loading
Personal Weather Stations






























Interactive Weather Map New forecast layout! Learn more

10-Day Weather Forecast

Advertisements
Track Severe Weather on mobile